Time;durP1;ratioP1;P1;durP2;ratioP2;P2;SDS_P1;SDS_P2;PMS_P1;PMS_P2;Temp;Humidity;BMP_temperature;BMP_pressure;BME280_temperature;BME280_humidity;BME280_pressure;Samples;Min_cycle;Max_cycle;Signal;HPM_P1;HPM_P2
2022/05/27 00:01:27;;;;;;;7.47;2.25;;;14.50;99.90;;;;;;5066040;28;20044;-73
2022/05/27 00:03:57;;;;;;;8.00;2.15;;;14.40;99.90;;;;;;5064000;28;20029;-73
2022/05/27 00:06:23;;;;;;;9.20;1.73;;;14.40;99.90;;;;;;5067361;28;20036;-73
2022/05/27 00:08:49;;;;;;;6.65;1.83;;;14.40;99.90;;;;;;5062624;28;20037;-73
2022/05/27 00:11:14;;;;;;;8.30;1.50;;;14.30;99.90;;;;;;5061997;28;20494;-73
2022/05/27 00:13:41;;;;;;;7.10;1.73;;;14.30;99.90;;;;;;5063594;28;20048;-73
2022/05/27 00:16:07;;;;;;;9.90;1.70;;;14.30;99.90;;;;;;5060576;28;20520;-73
2022/05/27 00:18:33;;;;;;;5.80;1.88;;;14.20;99.90;;;;;;5064168;28;20441;-73
2022/05/27 00:20:59;;;;;;;6.90;1.50;;;14.20;99.90;;;;;;5065492;28;20044;-73
2022/05/27 00:23:26;;;;;;;4.55;1.10;;;14.20;99.90;;;;;;5066551;28;20075;-73
2022/05/27 00:25:51;;;;;;;4.88;1.13;;;14.20;99.90;;;;;;5062736;28;20044;-73
2022/05/27 00:28:17;;;;;;;5.95;1.50;;;14.20;99.90;;;;;;5064794;28;20040;-73
2022/05/27 00:30:44;;;;;;;6.38;1.50;;;14.10;99.90;;;;;;5062792;28;20050;-73
2022/05/27 00:33:10;;;;;;;6.65;1.65;;;14.10;99.90;;;;;;5063093;28;20052;-73
2022/05/27 00:35:36;;;;;;;4.72;1.63;;;14.10;99.90;;;;;;5062941;28;20052;-73
2022/05/27 00:38:02;;;;;;;7.72;2.15;;;14.10;99.90;;;;;;5063540;28;20059;-73
2022/05/27 00:40:52;;;;;;;5.38;1.80;;;14.10;99.90;;;;;;5061681;28;20044;-73
2022/05/27 00:43:19;;;;;;;7.93;1.88;;;14.10;99.90;;;;;;5064372;28;20047;-74
2022/05/27 00:45:59;;;;;;;7.70;2.03;;;14.00;99.90;;;;;;5062896;28;20044;-74
2022/05/27 00:48:26;;;;;;;11.27;2.50;;;14.00;99.90;;;;;;5066406;28;20044;-73
2022/05/27 00:50:52;;;;;;;9.65;2.50;;;14.00;99.90;;;;;;5059967;28;20129;-74
2022/05/27 00:53:40;;;;;;;9.15;2.08;;;14.00;99.90;;;;;;5065728;28;20558;-73
2022/05/27 00:56:10;;;;;;;6.85;2.00;;;14.00;99.90;;;;;;5063851;28;20040;-74
2022/05/27 00:58:43;;;;;;;12.40;3.80;;;14.00;99.90;;;;;;5051156;28;20053;-74
2022/05/27 01:01:10;;;;;;;7.97;2.50;;;14.00;99.90;;;;;;5061503;28;20052;-74
2022/05/27 01:03:36;;;;;;;9.13;2.70;;;14.00;99.90;;;;;;5068048;28;20115;-74
2022/05/27 01:06:02;;;;;;;10.60;2.90;;;14.00;99.90;;;;;;5062683;28;20041;-74
2022/05/27 01:08:29;;;;;;;9.23;2.13;;;14.00;99.90;;;;;;5044329;28;20055;-74
2022/05/27 01:11:20;;;;;;;10.20;2.47;;;14.00;99.90;;;;;;5096306;28;20059;-74
2022/05/27 01:13:56;;;;;;;8.82;2.55;;;14.00;99.90;;;;;;5059670;28;20040;-74
2022/05/27 01:16:49;;;;;;;6.80;2.05;;;13.90;99.90;;;;;;5061621;28;20044;-74
2022/05/27 01:23:06;;;;;;;13.48;2.55;;;13.90;99.90;;;;;;5064069;28;20075;-74
2022/05/27 01:25:53;;;;;;;11.50;2.85;;;13.90;99.90;;;;;;5062622;28;20040;-74
2022/05/27 01:28:40;;;;;;;13.00;2.88;;;13.80;99.90;;;;;;5066869;28;20079;-74
2022/05/27 01:31:32;;;;;;;13.23;2.67;;;13.80;99.90;;;;;;5060918;28;20037;-74
2022/05/27 01:34:16;;;;;;;11.05;1.92;;;13.80;99.90;;;;;;5060784;28;20044;-74
2022/05/27 01:37:00;;;;;;;11.23;2.42;;;13.80;99.90;;;;;;5062707;28;20471;-74
2022/05/27 01:39:42;;;;;;;6.80;1.90;;;13.70;99.90;;;;;;5067492;28;20060;-74
2022/05/27 01:42:17;;;;;;;15.70;2.65;;;13.70;99.90;;;;;;5060739;28;20052;-74
2022/05/27 01:45:02;;;;;;;12.88;2.72;;;13.70;99.90;;;;;;5064116;28;20060;-74
2022/05/27 01:47:48;;;;;;;10.73;2.90;;;13.70;99.90;;;;;;5062811;28;20037;-74
2022/05/27 01:50:22;;;;;;;13.07;2.10;;;13.60;99.90;;;;;;5085139;28;20389;-74
2022/05/27 01:52:58;;;;;;;19.63;2.60;;;13.60;99.90;;;;;;5094202;28;20538;-74
2022/05/27 01:55:40;;;;;;;20.48;2.63;;;13.60;99.90;;;;;;5043659;28;20040;-74
2022/05/27 01:58:30;;;;;;;13.90;2.92;;;13.60;99.90;;;;;;5062857;28;20506;-74
2022/05/27 02:00:55;;;;;;;15.32;2.38;;;13.50;99.90;;;;;;5063954;28;20037;-74
2022/05/27 02:03:39;;;;;;;14.52;3.00;;;13.50;99.90;;;;;;5045573;28;20041;-74
2022/05/27 02:06:11;;;;;;;15.82;2.80;;;13.50;99.90;;;;;;5061092;28;20063;-74
2022/05/27 02:08:44;;;;;;;18.33;3.13;;;13.50;99.90;;;;;;5062490;28;20501;-74
2022/05/27 02:11:15;;;;;;;13.32;2.65;;;13.40;99.90;;;;;;5061634;28;20059;-74
2022/05/27 02:13:51;;;;;;;16.50;2.92;;;13.40;99.90;;;;;;5060341;28;20048;-74
2022/05/27 02:16:23;;;;;;;13.38;2.88;;;13.40;99.90;;;;;;5060634;28;20476;-75
2022/05/27 02:18:58;;;;;;;21.48;3.25;;;13.40;99.90;;;;;;5060657;28;20033;-74
2022/05/27 02:21:31;;;;;;;16.17;2.80;;;13.40;99.90;;;;;;5059403;28;20561;-74
2022/05/27 02:24:02;;;;;;;12.63;2.85;;;13.30;99.90;;;;;;5064732;28;20051;-74
2022/05/27 02:26:32;;;;;;;13.50;3.20;;;13.30;99.90;;;;;;5059246;28;20130;-74
2022/05/27 02:29:12;;;;;;;13.68;2.70;;;13.30;99.90;;;;;;5063570;28;20115;-74
2022/05/27 02:31:43;;;;;;;14.48;2.90;;;13.30;99.90;;;;;;5063040;28;20044;-74
2022/05/27 02:37:25;;;;;;;15.52;2.28;;;13.20;99.90;;;;;;5060527;28;20048;-74
2022/05/27 02:39:53;;;;;;;14.48;3.10;;;13.10;99.90;;;;;;5059364;28;20047;-74
2022/05/27 02:42:53;;;;;;;11.45;2.67;;;13.10;99.90;;;;;;5058155;28;20052;-74
2022/05/27 02:45:41;;;;;;;17.30;3.35;;;13.00;99.90;;;;;;5064980;28;20052;-75
2022/05/27 02:48:06;;;;;;;12.55;2.70;;;13.00;99.90;;;;;;5064988;28;20041;-74
2022/05/27 02:50:42;;;;;;;14.70;2.47;;;12.90;99.90;;;;;;5092125;28;20052;-73
2022/05/27 02:53:45;;;;;;;17.40;2.70;;;13.30;99.90;;;;;;5065655;28;20062;-74
2022/05/27 02:56:24;;;;;;;15.05;3.45;;;12.80;99.90;;;;;;5067221;28;20043;-74
2022/05/27 02:58:49;;;;;;;13.20;2.35;;;12.80;99.90;;;;;;5066016;28;20051;-74
2022/05/27 03:01:16;;;;;;;16.25;2.22;;;12.80;99.90;;;;;;5060064;28;20044;-74
2022/05/27 03:03:42;;;;;;;11.88;2.42;;;12.80;99.90;;;;;;5061353;28;20119;-74
2022/05/27 03:06:26;;;;;;;12.35;2.15;;;12.80;99.90;;;;;;5056837;28;20120;-74
2022/05/27 03:09:06;;;;;;;14.00;3.33;;;12.80;99.90;;;;;;5060849;28;20040;-74
2022/05/27 03:11:47;;;;;;;18.52;4.20;;;12.80;99.90;;;;;;5064592;28;20125;-74
2022/05/27 03:14:37;;;;;;;10.00;3.35;;;12.80;99.90;;;;;;5093495;28;20097;-74
2022/05/27 03:17:30;;;;;;;15.45;3.17;;;12.80;99.90;;;;;;5062613;28;20052;-74
2022/05/27 03:20:05;;;;;;;15.02;3.22;;;12.90;99.90;;;;;;5059827;28;20048;-74
2022/05/27 03:23:05;;;;;;;26.13;3.30;;;12.90;99.90;;;;;;5077602;28;20579;-74
2022/05/27 03:25:45;;;;;;;16.23;2.53;;;12.80;99.90;;;;;;5063157;28;20086;-74
2022/05/27 03:28:18;;;;;;;12.73;3.17;;;12.80;99.90;;;;;;5060142;28;20549;-74
2022/05/27 03:31:11;;;;;;;14.88;2.80;;;12.80;99.90;;;;;;5061881;28;20059;-75
2022/05/27 03:33:46;;;;;;;14.32;3.38;;;12.80;99.90;;;;;;5060086;28;20029;-74
2022/05/27 03:36:12;;;;;;;16.48;3.08;;;12.80;99.90;;;;;;5066468;28;20509;-75
2022/05/27 03:38:59;;;;;;;16.90;3.55;;;12.80;99.90;;;;;;5062554;28;20032;-75
2022/05/27 03:41:47;;;;;;;19.50;4.20;;;12.80;99.90;;;;;;5063848;28;20036;-75
2022/05/27 03:44:18;;;;;;;17.65;4.30;;;12.80;99.90;;;;;;5064938;28;20059;-75
2022/05/27 03:46:48;;;;;;;15.93;3.63;;;12.70;99.90;;;;;;5047519;28;20040;-75
2022/05/27 03:49:13;;;;;;;17.20;3.80;;;12.70;99.90;;;;;;5044025;28;20960;-74
2022/05/27 03:51:57;;;;;;;12.93;2.97;;;12.80;99.90;;;;;;5060649;28;20041;-75
2022/05/27 03:54:23;;;;;;;13.23;3.08;;;12.80;99.90;;;;;;5091160;28;20052;-74
2022/05/27 03:56:49;;;;;;;10.85;3.38;;;12.90;99.90;;;;;;5061213;28;20032;-74
2022/05/27 03:59:17;;;;;;;13.45;3.25;;;12.90;99.90;;;;;;5059661;28;20033;-75
2022/05/27 04:01:45;;;;;;;12.73;3.22;;;13.00;99.90;;;;;;5056834;28;20049;-75
2022/05/27 04:04:13;;;;;;;14.35;2.92;;;13.00;99.90;;;;;;5059097;28;20076;-74
2022/05/27 04:06:40;;;;;;;13.85;3.08;;;13.00;99.90;;;;;;5060575;28;20029;-74
2022/05/27 04:09:06;;;;;;;16.65;3.67;;;13.00;99.90;;;;;;5059393;28;20562;-74
2022/05/27 04:11:32;;;;;;;11.60;2.83;;;13.00;99.90;;;;;;5060208;28;20049;-74
2022/05/27 04:13:58;;;;;;;14.57;3.35;;;13.10;99.90;;;;;;5060968;28;20045;-75
2022/05/27 04:16:24;;;;;;;14.85;3.80;;;13.00;99.90;;;;;;5057553;28;20052;-75
2022/05/27 04:18:50;;;;;;;15.48;3.40;;;13.10;99.90;;;;;;5061009;28;20044;-74
2022/05/27 04:21:16;;;;;;;18.05;3.55;;;13.10;99.90;;;;;;5062536;28;20090;-75
2022/05/27 04:23:42;;;;;;;19.58;2.97;;;13.00;99.90;;;;;;5059589;28;20498;-75
2022/05/27 04:26:08;;;;;;;9.77;2.38;;;13.00;99.90;;;;;;5057729;28;20025;-75
2022/05/27 04:28:34;;;;;;;17.90;2.83;;;13.10;99.90;;;;;;5058366;28;20380;-74
2022/05/27 04:31:01;;;;;;;15.07;3.03;;;13.00;99.90;;;;;;5055607;28;20047;-74
2022/05/27 04:33:27;;;;;;;14.35;2.65;;;13.00;99.90;;;;;;5056390;28;20036;-74
2022/05/27 04:35:54;;;;;;;18.42;3.25;;;13.00;99.90;;;;;;5057047;28;20914;-75
2022/05/27 04:38:21;;;;;;;18.52;4.03;;;13.00;99.90;;;;;;5057762;28;20056;-75
2022/05/27 04:40:47;;;;;;;18.23;2.58;;;13.00;99.90;;;;;;5056457;28;20510;-74
2022/05/27 04:43:14;;;;;;;11.48;2.28;;;13.00;99.90;;;;;;5064085;28;20041;-75
2022/05/27 04:45:40;;;;;;;13.88;2.67;;;13.00;99.90;;;;;;5076469;28;20248;-74
2022/05/27 04:48:07;;;;;;;16.60;2.78;;;13.00;99.90;;;;;;5091398;27;20048;-75
2022/05/27 04:50:33;;;;;;;19.10;2.95;;;13.00;99.90;;;;;;5061778;28;20041;-75
2022/05/27 04:53:00;;;;;;;13.80;2.88;;;13.00;99.90;;;;;;5061826;28;20040;-75
2022/05/27 04:55:26;;;;;;;17.05;2.15;;;13.00;99.90;;;;;;5059472;28;20048;-74
2022/05/27 04:57:54;;;;;;;19.38;2.42;;;13.00;99.90;;;;;;5064202;28;20052;-75
2022/05/27 05:00:28;;;;;;;13.77;2.60;;;12.90;99.90;;;;;;5091158;27;20061;-75
2022/05/27 05:02:54;;;;;;;13.85;2.10;;;12.90;99.90;;;;;;5060747;28;20067;-75
2022/05/27 05:05:22;;;;;;;9.93;2.47;;;12.90;99.90;;;;;;5061708;28;20076;-75
2022/05/27 05:07:54;;;;;;;10.90;2.50;;;12.90;99.90;;;;;;5061861;28;20036;-75
2022/05/27 05:10:22;;;;;;;15.45;2.33;;;13.00;99.90;;;;;;5064240;28;20037;-75
2022/05/27 05:12:49;;;;;;;16.80;2.53;;;13.00;99.90;;;;;;5066543;28;20037;-75
2022/05/27 05:15:16;;;;;;;12.38;2.30;;;13.20;99.90;;;;;;5097571;27;20040;-75
2022/05/27 05:17:43;;;;;;;16.58;2.72;;;13.30;99.90;;;;;;5067145;28;20032;-75
2022/05/27 05:20:12;;;;;;;17.63;2.53;;;13.50;99.90;;;;;;5062757;28;20429;-75
2022/05/27 05:22:38;;;;;;;17.23;2.80;;;13.80;99.90;;;;;;5069161;28;20530;-75
2022/05/27 05:25:04;;;;;;;11.82;2.22;;;14.40;99.90;;;;;;5069400;28;20162;-75
2022/05/27 05:27:30;;;;;;;8.48;1.73;;;15.10;99.90;;;;;;5065243;28;20047;-74
2022/05/27 05:29:57;;;;;;;9.13;2.22;;;15.80;99.90;;;;;;5060680;28;20049;-74
2022/05/27 05:32:23;;;;;;;9.63;1.95;;;16.30;99.90;;;;;;5063723;28;20028;-74
2022/05/27 05:34:49;;;;;;;14.75;2.45;;;16.80;99.90;;;;;;5060750;28;20091;-74
2022/05/27 05:37:15;;;;;;;8.25;1.52;;;16.80;99.90;;;;;;5083259;28;20037;-74
2022/05/27 05:39:42;;;;;;;10.70;1.92;;;16.70;99.90;;;;;;5064903;28;20439;-74
2022/05/27 05:42:08;;;;;;;12.18;1.95;;;16.50;99.90;;;;;;5062913;28;20033;-75
2022/05/27 05:44:35;;;;;;;12.70;2.45;;;16.40;99.90;;;;;;5061310;28;20044;-75
2022/05/27 05:47:02;;;;;;;14.80;2.38;;;16.10;99.90;;;;;;5051457;28;20040;-74
2022/05/27 05:49:27;;;;;;;11.88;2.55;;;16.10;99.90;;;;;;5098323;27;20130;-74
2022/05/27 05:51:55;;;;;;;16.02;2.85;;;16.30;99.90;;;;;;5064431;28;20506;-75
2022/05/27 05:54:22;;;;;;;15.63;2.33;;;16.40;99.90;;;;;;5068965;28;20044;-75
2022/05/27 05:56:49;;;;;;;8.45;1.70;;;16.40;99.90;;;;;;5062642;28;20044;-74
2022/05/27 05:59:16;;;;;;;11.57;2.90;;;16.40;99.90;;;;;;5066721;28;20036;-74
2022/05/27 06:01:42;;;;;;;11.88;1.88;;;16.50;99.90;;;;;;5066281;28;20051;-74
2022/05/27 06:04:08;;;;;;;15.63;2.13;;;16.30;99.90;;;;;;5062859;28;20029;-74
2022/05/27 06:06:34;;;;;;;11.73;1.98;;;16.30;99.90;;;;;;5068585;28;20474;-74
2022/05/27 06:09:00;;;;;;;12.13;2.20;;;16.20;99.90;;;;;;5046986;28;20033;-74
2022/05/27 06:11:25;;;;;;;11.48;2.40;;;16.10;99.90;;;;;;5064439;28;20044;-75
2022/05/27 06:13:51;;;;;;;11.65;2.45;;;15.80;99.90;;;;;;5064669;28;20049;-74
2022/05/27 06:16:17;;;;;;;15.13;2.50;;;15.80;99.90;;;;;;5063709;28;20043;-74
2022/05/27 06:18:43;;;;;;;11.57;2.10;;;15.60;99.90;;;;;;5068705;28;20033;-74
2022/05/27 06:21:09;;;;;;;12.48;2.65;;;15.60;99.90;;;;;;5063396;28;20044;-74
2022/05/27 06:23:35;;;;;;;14.90;2.05;;;15.40;99.90;;;;;;5061953;28;20041;-75
2022/05/27 06:26:04;;;;;;;9.55;2.63;;;15.50;99.90;;;;;;5058743;28;20041;-75
2022/05/27 06:36:45;;;;;;;14.75;2.75;;;16.60;99.90;;;;;;5060540;28;20048;-75
2022/05/27 06:39:13;;;;;;;11.13;2.33;;;16.70;99.90;;;;;;5091845;27;20143;-74
2022/05/27 06:41:39;;;;;;;14.45;2.63;;;16.60;99.90;;;;;;5060932;28;20041;-74
2022/05/27 06:44:05;;;;;;;12.88;2.30;;;16.70;99.90;;;;;;5061833;28;20110;-75
2022/05/27 06:46:33;;;;;;;9.35;2.10;;;16.90;99.90;;;;;;5092845;28;20094;-74
2022/05/27 06:48:58;;;;;;;11.02;1.95;;;17.20;99.90;;;;;;5060817;28;20032;-74
2022/05/27 06:51:25;;;;;;;15.57;3.28;;;17.50;99.90;;;;;;5097504;28;20085;-74
2022/05/27 06:53:50;;;;;;;12.90;2.88;;;17.60;99.90;;;;;;5059577;28;20139;-73
2022/05/27 06:56:16;;;;;;;16.60;3.00;;;17.50;99.90;;;;;;5059606;28;20033;-74
2022/05/27 06:58:42;;;;;;;15.68;3.15;;;17.50;99.90;;;;;;5059631;28;20157;-74
2022/05/27 07:01:09;;;;;;;11.57;2.40;;;17.40;99.90;;;;;;5059461;28;20051;-74
2022/05/27 07:03:37;;;;;;;11.52;2.47;;;17.30;99.90;;;;;;5060360;28;20033;-74
2022/05/27 07:06:04;;;;;;;12.55;2.67;;;17.20;99.90;;;;;;5061892;28;20684;-74
2022/05/27 07:08:31;;;;;;;11.02;2.63;;;17.30;99.90;;;;;;5060743;28;20056;-73
2022/05/27 07:10:57;;;;;;;9.20;2.65;;;17.50;99.90;;;;;;5055000;28;20041;-74
2022/05/27 07:13:23;;;;;;;13.23;2.65;;;17.90;99.90;;;;;;5066221;28;20045;-73
2022/05/27 07:15:48;;;;;;;10.93;2.17;;;18.10;99.90;;;;;;5057912;28;20036;-74
2022/05/27 07:18:14;;;;;;;12.25;2.50;;;18.10;99.90;;;;;;5060306;28;20052;-74
2022/05/27 07:20:41;;;;;;;12.00;2.80;;;18.40;99.90;;;;;;5061409;28;20044;-74
2022/05/27 07:23:08;;;;;;;7.03;1.67;;;18.60;99.90;;;;;;5058241;28;20048;-74
2022/05/27 07:25:34;;;;;;;13.63;3.17;;;18.60;99.90;;;;;;5058944;28;20045;-74
2022/05/27 07:28:04;;;;;;;8.80;2.20;;;18.60;99.90;;;;;;5062831;28;20383;-74
2022/05/27 07:30:30;;;;;;;13.13;2.65;;;18.70;99.90;;;;;;5061241;28;20044;-74
2022/05/27 07:32:56;;;;;;;10.23;2.70;;;18.30;99.90;;;;;;5059399;28;20047;-74
2022/05/27 07:35:22;;;;;;;12.48;2.42;;;18.10;99.90;;;;;;5059216;28;20069;-74
2022/05/27 07:37:48;;;;;;;10.57;2.78;;;18.10;99.90;;;;;;5063591;28;20514;-74
2022/05/27 07:40:14;;;;;;;12.05;3.03;;;18.00;99.90;;;;;;5061267;28;20053;-73
2022/05/27 07:42:41;;;;;;;12.43;2.53;;;17.90;99.90;;;;;;5093805;28;20503;-74
2022/05/27 07:45:08;;;;;;;13.18;2.15;;;17.80;99.90;;;;;;5060311;28;20029;-74
2022/05/27 07:47:33;;;;;;;9.18;2.00;;;17.90;99.90;;;;;;5062401;28;20052;-74
2022/05/27 07:49:59;;;;;;;16.15;3.38;;;18.10;99.90;;;;;;5061090;28;20043;-74
2022/05/27 07:52:25;;;;;;;13.80;2.85;;;18.20;99.90;;;;;;5062719;28;20040;-74
2022/05/27 07:54:51;;;;;;;14.20;2.60;;;18.50;99.90;;;;;;5060609;28;20036;-73
2022/05/27 07:57:23;;;;;;;11.05;2.90;;;18.60;99.90;;;;;;5062864;28;20032;-74
2022/05/27 08:00:20;;;;;;;13.05;2.47;;;18.80;99.90;;;;;;5062208;28;20475;-73
2022/05/27 08:02:46;;;;;;;9.73;1.90;;;18.70;99.90;;;;;;5046137;28;20044;-73
2022/05/27 08:19:28;;;;;;;;;;;17.90;99.90;;;;;;5112578;27;20395;-72
2022/05/27 08:21:54;;;;;;;;;;;17.80;99.90;;;;;;5112647;28;19961;-73
2022/05/27 08:24:19;;;;;;;9.40;2.10;;;17.70;99.90;;;;;;5093809;27;19976;-73
2022/05/27 08:26:46;;;;;;;8.07;1.80;;;17.90;99.90;;;;;;5074732;28;20466;-72
2022/05/27 08:29:13;;;;;;;9.85;2.50;;;18.00;99.90;;;;;;5091444;28;20039;-73
2022/05/27 08:31:39;;;;;;;11.27;2.40;;;18.20;99.90;;;;;;5109334;28;20091;-73
2022/05/27 08:39:46;;;;;;;11.70;2.67;;;18.70;99.90;;;;;;5112682;28;20043;-73
2022/05/27 08:42:30;;;;;;;10.52;2.17;;;18.50;99.90;;;;;;5125268;27;20042;-73
2022/05/27 08:45:16;;;;;;;8.45;2.15;;;18.50;99.90;;;;;;5113017;28;20094;-73
2022/05/27 08:47:57;;;;;;;9.60;2.50;;;18.60;99.90;;;;;;5096648;28;20043;-73
2022/05/27 08:50:26;;;;;;;13.02;1.98;;;18.80;99.90;;;;;;5128497;27;20047;-73
2022/05/27 08:52:59;;;;;;;13.88;2.75;;;19.00;99.90;;;;;;5097390;28;20126;-72
2022/05/27 09:01:13;;;;;;;11.98;3.03;;;19.20;99.90;;;;;;5092700;28;20047;-72
2022/05/27 09:03:45;;;;;;;11.15;2.83;;;19.40;99.90;;;;;;5111440;28;20119;-73
2022/05/27 09:06:13;;;;;;;12.38;2.80;;;19.50;99.90;;;;;;5090948;28;20093;-73
2022/05/27 09:08:39;;;;;;;15.20;2.78;;;19.50;99.90;;;;;;5112579;28;20031;-73
2022/05/27 09:11:29;;;;;;;12.23;2.35;;;19.30;99.90;;;;;;5087310;28;20517;-72
2022/05/27 09:14:22;;;;;;;8.60;1.83;;;19.20;99.90;;;;;;5075792;28;20528;-73
2022/05/27 09:17:04;;;;;;;12.32;2.90;;;18.80;99.90;;;;;;5124567;27;20038;-73
2022/05/27 09:20:05;;;;;;;7.82;2.25;;;18.40;99.90;;;;;;5091702;28;20123;-73
2022/05/27 09:22:40;;;;;;;8.77;2.30;;;18.50;99.90;;;;;;5116595;27;20085;-73
2022/05/27 09:25:15;;;;;;;8.50;1.90;;;18.70;99.90;;;;;;5092266;28;20036;-73
2022/05/27 09:27:59;;;;;;;7.88;2.03;;;18.80;99.90;;;;;;5092824;28;20099;-72
2022/05/27 09:30:25;;;;;;;16.40;3.50;;;19.10;99.90;;;;;;5103186;28;20264;-73
2022/05/27 09:32:58;;;;;;;10.93;1.85;;;19.10;99.90;;;;;;5078387;28;20047;-72
2022/05/27 09:35:31;;;;;;;11.80;1.95;;;19.30;99.90;;;;;;5100996;28;20113;-73
2022/05/27 09:38:01;;;;;;;10.05;2.45;;;19.30;99.90;;;;;;5078680;28;20482;-73
2022/05/27 09:40:48;;;;;;;11.48;2.45;;;19.00;99.90;;;;;;5085420;28;20043;-73
2022/05/27 09:43:21;;;;;;;11.35;2.17;;;18.80;99.90;;;;;;5080933;28;20135;-73
2022/05/27 09:46:10;;;;;;;9.13;1.80;;;18.50;99.90;;;;;;5111861;27;20076;-72
2022/05/27 09:48:35;;;;;;;11.25;2.17;;;18.40;99.90;;;;;;5096587;28;20103;-73
2022/05/27 09:51:04;;;;;;;9.60;2.20;;;18.40;99.90;;;;;;5084177;28;20039;-72
2022/05/27 09:53:52;;;;;;;7.30;1.95;;;18.60;99.90;;;;;;5081399;28;20184;-73
2022/05/27 09:56:40;;;;;;;14.85;2.50;;;18.60;99.90;;;;;;5108081;27;20059;-73
2022/05/27 09:59:45;;;;;;;9.20;2.10;;;18.40;99.90;;;;;;5081258;28;20062;-72
2022/05/27 10:02:31;;;;;;;12.88;2.90;;;18.10;99.90;;;;;;5038944;28;20052;-73
2022/05/27 10:04:57;;;;;;;14.15;2.47;;;18.00;99.90;;;;;;5098612;28;20052;-73
2022/05/27 10:07:25;;;;;;;13.20;2.47;;;18.10;99.90;;;;;;5083828;28;20048;-73
2022/05/27 10:09:51;;;;;;;12.20;3.20;;;17.80;99.90;;;;;;5092269;28;20036;-72
2022/05/27 10:12:28;;;;;;;11.05;1.60;;;17.50;99.90;;;;;;5082480;28;20604;-73
2022/05/27 10:14:55;;;;;;;9.85;2.22;;;17.40;99.90;;;;;;5081453;28;20509;-72
2022/05/27 10:17:36;;;;;;;8.80;1.63;;;17.50;99.90;;;;;;5091406;28;20048;-72
2022/05/27 10:20:31;;;;;;;11.50;2.58;;;17.60;99.90;;;;;;5054170;28;20043;-72
2022/05/27 10:23:10;;;;;;;13.55;2.47;;;17.70;99.90;;;;;;5062899;28;20046;-72
2022/05/27 10:25:42;;;;;;;11.45;2.63;;;17.70;99.90;;;;;;5092810;28;20036;-72
2022/05/27 10:28:10;;;;;;;11.10;2.25;;;17.60;99.90;;;;;;5079323;28;20048;-72
2022/05/27 10:30:51;;;;;;;10.82;2.10;;;17.70;99.90;;;;;;5091469;28;20036;-72
2022/05/27 10:33:21;;;;;;;9.45;2.25;;;17.80;99.90;;;;;;5090455;28;20162;-72
2022/05/27 10:35:48;;;;;;;10.80;2.47;;;17.80;99.90;;;;;;5109900;27;20038;-72
2022/05/27 10:38:32;;;;;;;10.65;1.67;;;17.90;99.90;;;;;;5094046;28;20398;-72
2022/05/27 10:41:24;;;;;;;9.18;2.10;;;18.00;99.90;;;;;;5075717;28;20080;-72
2022/05/27 10:44:07;;;;;;;13.38;2.90;;;17.90;99.90;;;;;;5079350;28;20587;-72
2022/05/27 10:46:41;;;;;;;8.02;1.60;;;17.70;99.90;;;;;;5076718;28;20041;-72
2022/05/27 10:49:09;;;;;;;15.70;2.58;;;17.70;99.90;;;;;;5093427;28;20139;-71
2022/05/27 10:51:48;;;;;;;11.35;2.20;;;17.80;99.90;;;;;;5096567;28;20044;-71
2022/05/27 10:54:44;;;;;;;8.73;1.95;;;18.00;99.90;;;;;;5063697;28;20044;-72
2022/05/27 11:03:38;;;;;;;12.82;2.35;;;18.20;99.90;;;;;;5092998;28;20036;-71
2022/05/27 11:06:19;;;;;;;8.02;1.88;;;18.20;99.90;;;;;;5048894;28;20047;-72
2022/05/27 11:09:11;;;;;;;8.60;2.83;;;18.30;99.90;;;;;;5106688;27;20094;-72
2022/05/27 11:11:51;;;;;;;10.95;2.33;;;18.40;99.90;;;;;;5077209;28;20127;-72
2022/05/27 11:17:23;;;;;;;14.68;3.10;;;18.50;99.90;;;;;;5075533;28;20051;-72
2022/05/27 11:20:13;;;;;;;14.38;2.65;;;18.20;99.90;;;;;;5091845;28;20116;-72
2022/05/27 11:22:51;;;;;;;8.52;2.50;;;18.00;99.90;;;;;;5076348;28;20032;-72
2022/05/27 11:25:25;;;;;;;12.90;2.47;;;17.70;99.90;;;;;;5070482;28;20040;-72
2022/05/27 11:28:26;;;;;;;10.27;2.47;;;17.40;99.90;;;;;;5089559;28;20043;-72
2022/05/27 11:31:17;;;;;;;12.23;2.38;;;17.60;99.90;;;;;;5092043;28;20040;-72
2022/05/27 11:33:59;;;;;;;7.63;2.25;;;17.90;99.90;;;;;;5073082;28;20039;-72
2022/05/27 11:36:36;;;;;;;8.25;1.98;;;18.20;99.90;;;;;;5075402;28;20051;-72
2022/05/27 11:39:20;;;;;;;13.10;2.75;;;18.40;99.90;;;;;;5092808;28;20043;-72
2022/05/27 11:42:13;;;;;;;11.85;2.15;;;18.80;99.90;;;;;;5076106;28;20096;-72
2022/05/27 11:44:38;;;;;;;9.10;2.33;;;19.00;99.90;;;;;;5089436;28;20025;-72
2022/05/27 11:47:07;;;;;;;10.52;2.00;;;19.10;99.90;;;;;;5104517;28;20510;-72
2022/05/27 11:50:01;;;;;;;13.48;2.67;;;19.00;99.90;;;;;;5072562;28;20908;-72
2022/05/27 11:53:09;;;;;;;11.32;2.50;;;18.70;99.90;;;;;;5071115;28;20036;-72
2022/05/27 11:55:51;;;;;;;10.85;2.97;;;18.30;99.90;;;;;;4993354;28;20093;-72
2022/05/27 11:58:31;;;;;;;13.32;2.75;;;17.90;99.90;;;;;;5072972;28;20113;-72
2022/05/27 12:01:15;;;;;;;10.98;2.55;;;17.80;99.90;;;;;;5076877;28;20490;-72
2022/05/27 12:03:52;;;;;;;13.48;2.15;;;17.80;99.90;;;;;;5075171;28;20040;-72
2022/05/27 12:06:32;;;;;;;8.73;1.92;;;17.80;99.90;;;;;;5107316;27;20059;-72
2022/05/27 12:09:14;;;;;;;11.13;2.75;;;17.70;99.90;;;;;;5057837;28;20054;-72
2022/05/27 12:11:54;;;;;;;10.77;2.33;;;17.60;99.90;;;;;;5092161;28;20650;-72
2022/05/27 12:14:31;;;;;;;10.07;3.05;;;17.60;99.90;;;;;;5066644;28;20516;-72
2022/05/27 12:16:59;;;;;;;14.13;2.17;;;17.70;99.90;;;;;;5106483;28;20043;-72
2022/05/27 12:19:31;;;;;;;9.93;2.50;;;17.90;99.90;;;;;;5094632;28;20066;-72
2022/05/27 12:22:17;;;;;;;15.77;3.50;;;18.20;99.90;;;;;;5093136;28;20040;-72
2022/05/27 12:24:47;;;;;;;12.25;2.53;;;18.40;99.90;;;;;;5074800;28;20044;-72
2022/05/27 12:27:15;;;;;;;13.82;2.83;;;18.30;99.90;;;;;;5091923;28;20030;-72
2022/05/27 12:29:43;;;;;;;14.43;3.08;;;18.30;99.90;;;;;;5074360;28;20496;-72
2022/05/27 12:32:10;;;;;;;15.95;2.95;;;18.00;99.90;;;;;;5086785;28;20040;-72
2022/05/27 12:34:38;;;;;;;13.38;3.13;;;18.00;99.90;;;;;;5074844;28;20093;-72
2022/05/27 12:37:12;;;;;;;14.55;2.50;;;18.00;99.90;;;;;;5085981;28;20047;-72
2022/05/27 12:39:40;;;;;;;13.50;3.00;;;18.00;99.90;;;;;;5073746;28;20081;-72
2022/05/27 12:42:26;;;;;;;14.07;2.55;;;17.80;99.90;;;;;;5077571;28;20052;-72
2022/05/27 12:44:52;;;;;;;12.75;2.75;;;17.50;99.90;;;;;;5059918;28;20114;-72
2022/05/27 12:47:29;;;;;;;15.20;2.83;;;17.30;99.90;;;;;;5103906;28;20051;-72
2022/05/27 12:50:03;;;;;;;11.95;2.20;;;17.20;99.90;;;;;;5105832;28;20079;-72
2022/05/27 12:52:29;;;;;;;16.85;3.05;;;17.10;99.90;;;;;;5092150;28;20035;-71
2022/05/27 12:54:56;;;;;;;11.65;2.35;;;17.20;99.90;;;;;;5094962;28;20067;-71
2022/05/27 13:00:55;;;;;;;14.85;2.60;;;17.30;99.90;;;;;;5094027;28;20044;-71
2022/05/27 13:03:36;;;;;;;13.60;2.67;;;17.40;99.90;;;;;;5065334;28;20080;-72
2022/05/27 13:06:07;;;;;;;12.82;2.95;;;17.30;99.90;;;;;;5111273;27;20039;-72
2022/05/27 13:09:00;;;;;;;16.20;3.03;;;17.30;99.90;;;;;;5074618;28;20048;-71
2022/05/27 13:11:34;;;;;;;11.63;2.13;;;17.30;99.90;;;;;;5043318;28;20055;-72
2022/05/27 13:14:03;;;;;;;9.48;2.30;;;17.30;99.90;;;;;;5103842;27;20051;-71
2022/05/27 13:16:52;;;;;;;10.50;2.80;;;17.30;99.90;;;;;;5076981;28;20085;-71
2022/05/27 13:19:29;;;;;;;15.32;3.08;;;17.40;99.90;;;;;;5079222;28;20071;-72
2022/05/27 13:22:07;;;;;;;16.30;2.70;;;17.50;99.90;;;;;;5074622;28;20131;-72
2022/05/27 13:24:36;;;;;;;18.65;4.75;;;17.70;99.90;;;;;;5078530;28;20036;-71
2022/05/27 13:27:28;;;;;;;14.30;2.45;;;17.80;99.90;;;;;;5111795;27;20044;-72
2022/05/27 13:29:54;;;;;;;13.32;2.63;;;17.60;99.90;;;;;;5073152;28;20052;-71
2022/05/27 13:32:28;;;;;;;13.20;2.75;;;17.50;99.90;;;;;;5079068;28;20047;-71
2022/05/27 13:35:17;;;;;;;12.88;2.42;;;17.40;99.90;;;;;;5093328;28;20039;-73
2022/05/27 13:37:57;;;;;;;11.10;2.25;;;17.40;99.90;;;;;;5075368;28;20550;-72
2022/05/27 13:40:34;;;;;;;12.77;2.63;;;17.60;99.90;;;;;;5105145;27;20036;-73
2022/05/27 13:43:11;;;;;;;10.50;2.35;;;17.60;99.90;;;;;;5105632;27;20089;-68
2022/05/27 13:46:07;;;;;;;14.55;2.75;;;17.60;99.90;;;;;;5077637;28;20768;-73
2022/05/27 13:48:56;;;;;;;;;;;17.50;99.90;;;;;;5074779;28;20048;-74
2022/05/27 13:51:22;;;;;;;12.77;2.42;;;17.50;99.90;;;;;;5063156;28;19919;-74
2022/05/27 13:53:51;;;;;;;11.93;2.45;;;17.50;99.90;;;;;;5096048;28;20127;-74
2022/05/27 13:56:25;;;;;;;11.23;3.22;;;17.50;99.90;;;;;;5073154;28;20048;-74
2022/05/27 13:59:05;;;;;;;9.93;2.08;;;17.50;99.90;;;;;;5094979;28;20043;-74
2022/05/27 14:01:38;;;;;;;11.75;2.35;;;17.60;99.90;;;;;;5075989;28;20031;-75
2022/05/27 14:04:06;;;;;;;11.13;2.80;;;17.60;99.90;;;;;;5111000;27;20032;-74
2022/05/27 14:06:35;;;;;;;18.17;2.67;;;17.50;99.90;;;;;;5093742;28;20147;-75